Time;durP1;ratioP1;P1;durP2;ratioP2;P2;SDS_P1;SDS_P2;PMS_P1;PMS_P2;Temp;Humidity;BMP_temperature;BMP_pressure;BME280_temperature;BME280_humidity;BME280_pressure;Samples;Min_cycle;Max_cycle;Signal;HPM_P1;HPM_P2
2024/01/16 06:01:34;;;;;;;;;;;;;;;;;;5482745;23;20045;-42
2024/01/16 06:04:00;;;;;;;;;;;;;;;;;;4990364;28;20217;-43
2024/01/16 06:06:25;;;;;;;;;;;;;;;;;;4990044;28;19910;-43
2024/01/16 06:08:51;;;;;;;;;;;;;;;;;;4990149;28;19909;-42
2024/01/16 06:11:19;;;;;;;;;;;;;;;;;;4990117;28;19910;-43
2024/01/16 06:13:45;;;;;;;;;;;;;;;;;;4990209;28;19997;-44
2024/01/16 06:16:11;;;;;;;;;;;;;;;;;;4990284;28;20432;-42
2024/01/16 06:18:37;;;;;;;;;;;;;;;;;;4990058;28;19910;-41
2024/01/16 06:21:03;;;;;;;;;;;;;;;;;;4990181;28;19917;-42
2024/01/16 06:23:29;;;;;;;;;;;;;;;;;;4990253;28;19961;-42
2024/01/16 06:25:55;;;;;;;;;;;;;;;;;;4989959;28;19910;-42
2024/01/16 06:28:21;;;;;;;;;;;;;;;;;;4972509;28;20304;-43
2024/01/16 06:30:46;;;;;;;;;;;;;;;;;;4989896;28;19906;-42
2024/01/16 06:33:12;;;;;;;;;;;;;;;;;;4989929;28;19910;-42
2024/01/16 06:35:38;;;;;;;;;;;;;;;;;;4989964;28;19905;-41
2024/01/16 06:38:04;;;;;;;;;;;;;;;;;;4990226;28;19913;-42
2024/01/16 06:40:30;;;;;;;;;;;;;;;;;;4989911;28;19973;-42
2024/01/16 06:42:56;;;;;;;;;;;;;;;;;;4989986;28;20277;-43
2024/01/16 06:45:22;;;;;;;;;;;;;;;;;;4989600;28;19914;-42
2024/01/16 06:47:48;;;;;;;;;;;;;;;;;;4988792;28;19941;-42
2024/01/16 06:50:14;;;;;;;;;;;;;;;;;;5001672;28;19921;-43
2024/01/16 06:52:40;;;;;;;;;;;;;;;;;;5012189;28;20000;-42
2024/01/16 06:55:06;;;;;;;;;;;;;;;;;;4996408;28;20545;-42
2024/01/16 06:57:32;;;;;;;;;;;;;;;;;;4995202;28;19910;-42
2024/01/16 06:59:57;;;;;;;;;;;;;;;;;;4994427;28;19953;-43
2024/01/16 07:02:23;;;;;;;;;;;;;;;;;;4992004;28;19921;-43
2024/01/16 07:04:49;;;;;;;;;;;;;;;;;;4992460;28;19917;-42
2024/01/16 07:07:16;;;;;;;;;;;;;;;;;;4994540;28;19917;-43
2024/01/16 07:09:41;;;;;;;;;;;;;;;;;;4994673;28;19917;-42
2024/01/16 07:12:07;;;;;;;;;;;;;;;;;;4993996;28;19910;-42
2024/01/16 07:14:33;;;;;;;;;;;;;;;;;;4994849;28;20337;-41
2024/01/16 07:16:59;;;;;;;;;;;;;;;;;;4994379;28;20274;-42
2024/01/16 07:19:25;;;;;;;;;;;;;;;;;;4977146;28;19910;-42
2024/01/16 07:21:51;;;;;;;;;;;;;;;;;;4994321;28;19920;-41
2024/01/16 07:24:17;;;;;;;;;;;;;;;;;;4992725;28;19921;-41
2024/01/16 07:26:43;;;;;;;;;;;;;;;;;;4991652;28;19921;-41
2024/01/16 07:29:09;;;;;;;;;;;;;;;;;;4994467;28;20348;-41
2024/01/16 07:31:35;;;;;;;;;;;;;;;;;;4992558;28;19916;-42
2024/01/16 07:34:01;;;;;;;;;;;;;;;;;;4993992;28;19936;-41
2024/01/16 07:36:27;;;;;;;;;;;;;;;;;;4996150;28;19968;-41
2024/01/16 07:38:53;;;;;;;;;;;;;;;;;;4991999;28;20371;-41
2024/01/16 07:41:18;;;;;;;;;;;;;;;;;;4990399;28;19914;-42
2024/01/16 07:43:44;;;;;;;;;;;;;;;;;;4995367;28;19914;-42
2024/01/16 07:46:10;;;;;;;;;;;;;;;;;;4992515;28;19964;-41
2024/01/16 07:48:36;;;;;;;;;;;;;;;;;;5006805;28;19997;-41
2024/01/16 07:51:02;;;;;;;;;;;;;;;;;;5013875;28;19910;-41
2024/01/16 07:53:28;;;;;;;;;;;;;;;;;;4995089;28;19914;-41
2024/01/16 07:55:54;;;;;;;;;;;;;;;;;;4994418;28;19914;-41
2024/01/16 07:58:20;;;;;;;;;;;;;;;;;;4995459;28;20383;-41
2024/01/16 08:00:46;;;;;;;;;;;;;;;;;;4994662;28;20004;-41
2024/01/16 08:03:14;;;;;;;;;;;;;;;;;;4993473;28;20360;-41
2024/01/16 08:05:40;;;;;;;;;;;;;;;;;;4993758;28;19917;-41
2024/01/16 08:08:05;;;;;;;;;;;;;;;;;;4994714;28;19992;-41
2024/01/16 08:10:31;;;;;;;;;;;;;;;;;;4993618;28;20423;-41
2024/01/16 08:12:57;;;;;;;;;;;;;;;;;;4996652;28;19967;-41
2024/01/16 08:15:23;;;;;;;;;;;;;;;;;;4992036;28;19914;-41
2024/01/16 08:17:49;;;;;;;;;;;;;;;;;;4994004;28;20395;-40
2024/01/16 08:20:16;;;;;;;;;;;;;;;;;;4997436;28;19914;-41
2024/01/16 08:22:41;;;;;;;;;;;;;;;;;;4993695;28;19921;-42
2024/01/16 08:25:08;;;;;;;;;;;;;;;;;;4992940;28;19917;-42
2024/01/16 08:27:33;;;;;;;;;;;;;;;;;;4994325;28;19913;-41
2024/01/16 08:29:59;;;;;;;;;;;;;;;;;;4993764;28;19914;-42
2024/01/16 08:32:25;;;;;;;;;;;;;;;;;;4993824;28;19953;-42
2024/01/16 08:34:51;;;;;;;;;;;;;;;;;;4993887;28;19914;-41
2024/01/16 08:37:17;;;;;;;;;;;;;;;;;;4993841;28;19909;-41
2024/01/16 08:39:43;;;;;;;;;;;;;;;;;;4993634;28;19910;-41
2024/01/16 08:42:11;;;;;;;;;;;;;;;;;;4993793;28;19914;-41
2024/01/16 08:44:37;;;;;;;;;;;;;;;;;;4993964;28;19914;-41
2024/01/16 08:47:05;;;;;;;;;;;;;;;;;;4993596;28;19973;-41
2024/01/16 08:49:31;;;;;;;;;;;;;;;;;;4993431;28;19913;-42
2024/01/16 08:51:58;;;;;;;;;;;;;;;;;;4993604;28;19968;-41
2024/01/16 08:54:25;;;;;;;;;;;;;;;;;;4993648;28;19917;-41
2024/01/16 08:56:51;;;;;;;;;;;;;;;;;;4993338;28;19949;-41
2024/01/16 08:59:17;;;;;;;;;;;;;;;;;;4993502;28;19952;-42
2024/01/16 09:01:43;;;;;;;;;;;;;;;;;;4993143;28;20466;-41
2024/01/16 09:04:09;;;;;;;;;;;;;;;;;;4993650;28;20384;-41
2024/01/16 09:06:35;;;;;;;;;;;;;;;;;;4993447;28;19910;-41
2024/01/16 09:09:01;;;;;;;;;;;;;;;;;;4993191;28;19945;-40
2024/01/16 09:11:27;;;;;;;;;;;;;;;;;;4992900;28;19910;-42
2024/01/16 09:13:52;;;;;;;;;;;;;;;;;;4993055;28;19909;-41
2024/01/16 09:16:18;;;;;;;;;;;;;;;;;;4992914;28;20435;-41
2024/01/16 09:18:44;;;;;;;;;;;;;;;;;;4990737;28;19960;-41
2024/01/16 09:21:10;;;;;;;;;;;;;;;;;;4993144;28;19910;-42
2024/01/16 09:23:37;;;;;;;;;;;;;;;;;;4993376;28;19964;-42
2024/01/16 09:26:03;;;;;;;;;;;;;;;;;;4991856;28;19972;-42
2024/01/16 09:28:28;;;;;;;;;;;;;;;;;;4992933;28;20416;-42
2024/01/16 09:30:56;;;;;;;;;;;;;;;;;;4992797;28;19909;-42
2024/01/16 09:33:22;;;;;;;;;;;;;;;;;;4992086;28;19914;-42
2024/01/16 09:35:48;;;;;;;;;;;;;;;;;;4992429;28;19921;-42
2024/01/16 09:38:14;;;;;;;;;;;;;;;;;;4993312;28;20466;-44
2024/01/16 09:40:39;;;;;;;;;;;;;;;;;;4989652;28;19917;-43
2024/01/16 09:43:08;;;;;;;;;;;;;;;;;;4991258;28;20396;-40
2024/01/16 09:45:34;;;;;;;;;;;;;;;;;;4991563;28;19917;-41
2024/01/16 09:48:00;;;;;;;;;;;;;;;;;;4991369;28;20372;-41
2024/01/16 09:50:26;;;;;;;;;;;;;;;;;;4991783;28;19988;-42
2024/01/16 09:52:52;;;;;;;;;;;;;;;;;;4993598;28;19949;-41
2024/01/16 09:55:18;;;;;;;;;;;;;;;;;;4992676;28;19914;-41
2024/01/16 09:57:44;;;;;;;;;;;;;;;;;;4991132;28;19924;-41
2024/01/16 10:00:13;;;;;;;;;;;;;;;;;;4991478;28;19910;-41
2024/01/16 10:02:39;;;;;;;;;;;;;;;;;;4974100;28;20355;-42
2024/01/16 10:05:05;;;;;;;;;;;;;;;;;;4989963;28;19918;-41
2024/01/16 10:07:31;;;;;;;;;;;;;;;;;;4990508;28;19944;-42
2024/01/16 10:09:57;;;;;;;;;;;;;;;;;;4987884;28;20387;-42
2024/01/16 10:12:23;;;;;;;;;;;;;;;;;;4989572;28;19914;-42
2024/01/16 10:14:50;;;;;;;;;;;;;;;;;;4990543;28;19920;-42
2024/01/16 10:17:17;;;;;;;;;;;;;;;;;;4988829;28;19914;-41
2024/01/16 10:19:43;;;;;;;;;;;;;;;;;;4988704;28;19925;-41
2024/01/16 10:22:09;;;;;;;;;;;;;;;;;;4988927;28;19914;-42
2024/01/16 10:24:36;;;;;;;;;;;;;;;;;;4989649;28;20328;-42
2024/01/16 10:27:03;;;;;;;;;;;;;;;;;;4988788;28;20006;-42
2024/01/16 10:29:29;;;;;;;;;;;;;;;;;;4989371;28;20435;-43
2024/01/16 10:31:55;;;;;;;;;;;;;;;;;;4974073;28;19936;-41
2024/01/16 10:34:21;;;;;;;;;;;;;;;;;;4989026;28;19914;-41
2024/01/16 10:36:47;;;;;;;;;;;;;;;;;;4989965;28;19914;-42
2024/01/16 10:39:13;;;;;;;;;;;;;;;;;;4990221;28;19987;-43
2024/01/16 10:41:39;;;;;;;;;;;;;;;;;;4991259;28;19917;-42
2024/01/16 10:44:06;;;;;;;;;;;;;;;;;;4990479;28;19921;-42
2024/01/16 10:46:32;;;;;;;;;;;;;;;;;;4980458;28;19914;-42
2024/01/16 10:48:58;;;;;;;;;;;;;;;;;;4963717;28;19916;-42
2024/01/16 10:51:24;;;;;;;;;;;;;;;;;;4988876;28;19918;-42
2024/01/16 10:53:50;;;;;;;;;;;;;;;;;;4988923;28;19918;-42
2024/01/16 10:56:16;;;;;;;;;;;;;;;;;;4988444;28;19910;-42
2024/01/16 10:58:42;;;;;;;;;;;;;;;;;;4989130;28;19909;-42
2024/01/16 11:01:08;;;;;;;;;;;;;;;;;;4988817;28;20012;-42
2024/01/16 11:03:35;;;;;;;;;;;;;;;;;;4988559;28;19913;-42
2024/01/16 11:06:01;;;;;;;;;;;;;;;;;;4971106;28;20036;-41
2024/01/16 11:08:30;;;;;;;;;;;;;;;;;;4988988;28;20008;-42
2024/01/16 11:10:56;;;;;;;;;;;;;;;;;;4988351;28;19910;-42
2024/01/16 11:13:22;;;;;;;;;;;;;;;;;;4990335;28;19917;-42
2024/01/16 11:15:48;;;;;;;;;;;;;;;;;;4989400;28;20427;-41
2024/01/16 11:18:14;;;;;;;;;;;;;;;;;;4988697;28;19980;-42
2024/01/16 11:20:42;;;;;;;;;;;;;;;;;;4984469;28;19937;-42
2024/01/16 11:23:08;;;;;;;;;;;;;;;;;;4987162;28;20040;-42
2024/01/16 11:25:34;;;;;;;;;;;;;;;;;;4985834;28;20052;-41
2024/01/16 11:28:00;;;;;;;;;;;;;;;;;;4985672;28;19914;-42
2024/01/16 11:30:26;;;;;;;;;;;;;;;;;;4986534;28;19914;-41
2024/01/16 11:32:52;;;;;;;;;;;;;;;;;;4985669;28;19918;-42
2024/01/16 11:35:18;;;;;;;;;;;;;;;;;;4985531;28;20003;-42
2024/01/16 11:37:43;;;;;;;;;;;;;;;;;;4988132;28;19924;-42
2024/01/16 11:40:10;;;;;;;;;;;;;;;;;;4991696;28;19917;-42
2024/01/16 11:42:42;;;;;;;;;;;;;;;;;;4992411;28;20269;-42
2024/01/16 11:45:08;;;;;;;;;;;;;;;;;;4992185;28;20341;-43
2024/01/16 11:47:34;;;;;;;;;;;;;;;;;;4992442;28;19921;-42
2024/01/16 11:50:00;;;;;;;;;;;;;;;;;;4990221;28;19945;-42
2024/01/16 11:52:26;;;;;;;;;;;;;;;;;;4990891;28;19914;-42
2024/01/16 11:54:52;;;;;;;;;;;;;;;;;;4991229;28;20528;-42
2024/01/16 11:57:18;;;;;;;;;;;;;;;;;;4990605;28;19914;-43
2024/01/16 11:59:43;;;;;;;;;;;;;;;;;;4989790;28;19918;-42
2024/01/16 12:02:09;;;;;;;;;;;;;;;;;;4992604;28;19917;-43
2024/01/16 12:04:35;;;;;;;;;;;;;;;;;;4990768;28;20463;-42
2024/01/16 12:07:01;;;;;;;;;;;;;;;;;;4991905;28;19917;-43
2024/01/16 12:09:27;;;;;;;;;;;;;;;;;;4989867;28;19914;-41
2024/01/16 12:11:53;;;;;;;;;;;;;;;;;;4988576;28;20308;-42
2024/01/16 12:14:19;;;;;;;;;;;;;;;;;;4983834;28;19920;-42
2024/01/16 12:16:45;;;;;;;;;;;;;;;;;;4991635;28;19910;-42
2024/01/16 12:19:11;;;;;;;;;;;;;;;;;;4991795;28;19913;-44
2024/01/16 12:21:37;;;;;;;;;;;;;;;;;;4992517;28;19917;-42
2024/01/16 12:24:03;;;;;;;;;;;;;;;;;;4974656;28;20514;-42
2024/01/16 12:26:29;;;;;;;;;;;;;;;;;;4973938;28;20044;-43
2024/01/16 12:28:56;;;;;;;;;;;;;;;;;;4990487;28;19921;-42
2024/01/16 12:31:22;;;;;;;;;;;;;;;;;;4991266;28;20353;-42
2024/01/16 12:33:48;;;;;;;;;;;;;;;;;;4992327;28;19910;-42
2024/01/16 12:36:14;;;;;;;;;;;;;;;;;;4993023;28;19914;-42
2024/01/16 12:38:40;;;;;;;;;;;;;;;;;;4991126;28;19921;-42
2024/01/16 12:41:06;;;;;;;;;;;;;;;;;;4991569;28;19914;-42
2024/01/16 12:43:32;;;;;;;;;;;;;;;;;;4991882;28;19913;-42
2024/01/16 12:45:58;;;;;;;;;;;;;;;;;;4992237;28;19914;-42
2024/01/16 12:48:24;;;;;;;;;;;;;;;;;;4991047;28;19925;-42
2024/01/16 12:50:50;;;;;;;;;;;;;;;;;;4990670;28;19914;-43
2024/01/16 12:53:18;;;;;;;;;;;;;;;;;;4990803;28;19949;-43
2024/01/16 12:55:45;;;;;;;;;;;;;;;;;;4991347;28;19921;-43
2024/01/16 12:58:11;;;;;;;;;;;;;;;;;;4991006;28;20004;-42
2024/01/16 13:00:37;;;;;;;;;;;;;;;;;;4991408;28;19956;-43
2024/01/16 13:03:03;;;;;;;;;;;;;;;;;;4990721;28;20423;-42
2024/01/16 13:05:29;;;;;;;;;;;;;;;;;;4991377;28;19913;-42
2024/01/16 13:07:55;;;;;;;;;;;;;;;;;;4990791;28;19984;-42
2024/01/16 13:10:22;;;;;;;;;;;;;;;;;;4991466;28;19918;-43
2024/01/16 13:12:48;;;;;;;;;;;;;;;;;;4989377;28;19915;-42
2024/01/16 13:15:16;;;;;;;;;;;;;;;;;;4990503;28;19914;-42
2024/01/16 13:17:43;;;;;;;;;;;;;;;;;;4986772;28;20003;-42
2024/01/16 13:20:10;;;;;;;;;;;;;;;;;;4989121;28;19921;-42
2024/01/16 13:22:36;;;;;;;;;;;;;;;;;;4989506;28;20296;-42
2024/01/16 13:25:02;;;;;;;;;;;;;;;;;;4988255;28;19918;-43
2024/01/16 13:27:29;;;;;;;;;;;;;;;;;;4990470;28;20423;-43
2024/01/16 13:29:55;;;;;;;;;;;;;;;;;;4992590;28;19917;-43
2024/01/16 13:32:21;;;;;;;;;;;;;;;;;;4987038;28;19961;-43
2024/01/16 13:34:49;;;;;;;;;;;;;;;;;;4987108;28;20265;-42
2024/01/16 13:37:15;;;;;;;;;;;;;;;;;;4991088;28;19964;-47
2024/01/16 13:39:41;;;;;;;;;;;;;;;;;;4989087;28;20344;-48
2024/01/16 13:42:07;;;;;;;;;;;;;;;;;;4990891;28;19910;-46
2024/01/16 13:44:33;;;;;;;;;;;;;;;;;;4990786;28;20416;-48
2024/01/16 13:46:58;;;;;;;;;;;;;;;;;;4990063;28;19914;-45
2024/01/16 13:49:24;;;;;;;;;;;;;;;;;;4987469;28;19918;-49
2024/01/16 13:51:51;;;;;;;;;;;;;;;;;;4968938;28;19919;-50
2024/01/16 13:54:17;;;;;;;;;;;;;;;;;;4959018;28;19945;-49
2024/01/16 13:56:43;;;;;;;;;;;;;;;;;;4988998;28;20289;-49
2024/01/16 13:59:10;;;;;;;;;;;;;;;;;;4990846;28;19913;-46
2024/01/16 14:01:36;;;;;;;;;;;;;;;;;;4986410;28;19917;-45
2024/01/16 14:04:02;;;;;;;;;;;;;;;;;;4991606;28;19918;-46
2024/01/16 14:06:28;;;;;;;;;;;;;;;;;;4989237;28;19968;-45
2024/01/16 14:08:54;;;;;;;;;;;;;;;;;;4988602;28;19933;-46
2024/01/16 14:11:20;;;;;;;;;;;;;;;;;;4985890;28;19960;-49
2024/01/16 14:13:46;;;;;;;;;;;;;;;;;;4993620;28;19965;-48
2024/01/16 14:16:11;;;;;;;;;;;;;;;;;;4990041;28;19953;-48
2024/01/16 14:18:37;;;;;;;;;;;;;;;;;;4988216;28;20001;-49
2024/01/16 14:21:04;;;;;;;;;;;;;;;;;;4986337;28;20048;-49
2024/01/16 14:23:30;;;;;;;;;;;;;;;;;;4994445;28;20288;-45
2024/01/16 14:25:56;;;;;;;;;;;;;;;;;;4990388;28;19967;-50
2024/01/16 14:28:26;;;;;;;;;;;;;;;;;;4987018;28;19913;-47
2024/01/16 14:30:51;;;;;;;;;;;;;;;;;;4986931;28;19913;-49
2024/01/16 14:33:17;;;;;;;;;;;;;;;;;;4988418;28;19969;-45
2024/01/16 14:35:43;;;;;;;;;;;;;;;;;;4986127;28;20016;-46
2024/01/16 14:38:09;;;;;;;;;;;;;;;;;;4987712;28;19914;-47
2024/01/16 14:40:35;;;;;;;;;;;;;;;;;;4986447;28;19914;-51
2024/01/16 14:43:04;;;;;;;;;;;;;;;;;;4991513;28;19914;-50
2024/01/16 14:45:31;;;;;;;;;;;;;;;;;;4987462;28;19922;-47
2024/01/16 14:47:57;;;;;;;;;;;;;;;;;;4989507;28;19921;-49
2024/01/16 14:50:23;;;;;;;;;;;;;;;;;;4986546;28;19936;-50
2024/01/16 14:52:49;;;;;;;;;;;;;;;;;;4989377;28;19917;-48
2024/01/16 14:55:15;;;;;;;;;;;;;;;;;;4987897;28;20344;-49
2024/01/16 14:57:41;;;;;;;;;;;;;;;;;;4988706;28;19968;-49
2024/01/16 15:00:19;;;;;;;;;;;;;;;;;;4986629;28;19976;-48
2024/01/16 15:02:46;;;;;;;;;;;;;;;;;;4981592;28;19918;-49
2024/01/16 15:05:13;;;;;;;;;;;;;;;;;;4987588;28;19949;-49
2024/01/16 15:07:40;;;;;;;;;;;;;;;;;;4991045;28;19967;-48
2024/01/16 15:10:06;;;;;;;;;;;;;;;;;;4983347;28;19941;-48
2024/01/16 15:12:32;;;;;;;;;;;;;;;;;;4989995;28;19957;-49
2024/01/16 15:14:59;;;;;;;;;;;;;;;;;;4989502;28;19984;-50
2024/01/16 15:17:27;;;;;;;;;;;;;;;;;;4992301;28;19914;-49
2024/01/16 15:19:53;;;;;;;;;;;;;;;;;;4990358;28;19922;-46
2024/01/16 15:22:19;;;;;;;;;;;;;;;;;;4990978;28;19921;-48
2024/01/16 15:24:46;;;;;;;;;;;;;;;;;;4993152;28;19936;-48
2024/01/16 15:27:11;;;;;;;;;;;;;;;;;;4991362;28;19960;-47
2024/01/16 15:29:37;;;;;;;;;;;;;;;;;;4993916;28;20355;-46
2024/01/16 15:32:03;;;;;;;;;;;;;;;;;;4993326;28;19914;-50
2024/01/16 15:34:29;;;;;;;;;;;;;;;;;;4990973;28;19964;-47
2024/01/16 15:36:55;;;;;;;;;;;;;;;;;;4991490;28;19961;-47
2024/01/16 15:39:21;;;;;;;;;;;;;;;;;;4990986;28;19949;-50
2024/01/16 15:41:47;;;;;;;;;;;;;;;;;;4973745;28;19913;-48
2024/01/16 15:44:13;;;;;;;;;;;;;;;;;;4991794;28;20067;-48
2024/01/16 15:46:39;;;;;;;;;;;;;;;;;;4991588;28;19944;-46
2024/01/16 15:49:05;;;;;;;;;;;;;;;;;;4991619;28;19921;-50
2024/01/16 15:51:31;;;;;;;;;;;;;;;;;;4991514;28;20460;-50
2024/01/16 15:53:57;;;;;;;;;;;;;;;;;;4988444;28;20377;-50
2024/01/16 15:56:24;;;;;;;;;;;;;;;;;;4991699;28;20016;-48
2024/01/16 15:58:50;;;;;;;;;;;;;;;;;;4991819;28;19968;-47
2024/01/16 16:01:16;;;;;;;;;;;;;;;;;;4989337;28;19961;-49
2024/01/16 16:03:42;;;;;;;;;;;;;;;;;;5011296;28;20380;-49
2024/01/16 16:06:08;;;;;;;;;;;;;;;;;;4999760;28;19909;-51
2024/01/16 16:08:34;;;;;;;;;;;;;;;;;;5012064;28;19936;-48
2024/01/16 16:11:00;;;;;;;;;;;;;;;;;;4994972;28;20404;-50
2024/01/16 16:13:30;;;;;;;;;;;;;;;;;;4993971;28;19922;-48
2024/01/16 16:15:56;;;;;;;;;;;;;;;;;;5002122;28;19914;-47
2024/01/16 16:18:23;;;;;;;;;;;;;;;;;;4989898;28;19925;-49
2024/01/16 16:20:48;;;;;;;;;;;;;;;;;;4990348;28;19914;-47
2024/01/16 16:23:14;;;;;;;;;;;;;;;;;;4990980;28;20349;-46
2024/01/16 16:25:40;;;;;;;;;;;;;;;;;;4992339;28;19925;-50
2024/01/16 16:28:06;;;;;;;;;;;;;;;;;;4973796;28;19910;-45
2024/01/16 16:30:34;;;;;;;;;;;;;;;;;;4990403;28;19909;-48
2024/01/16 16:32:59;;;;;;;;;;;;;;;;;;4973681;28;20332;-46
2024/01/16 16:35:25;;;;;;;;;;;;;;;;;;4991529;28;20316;-48
2024/01/16 16:37:51;;;;;;;;;;;;;;;;;;4991001;28;19910;-48
2024/01/16 16:40:17;;;;;;;;;;;;;;;;;;4990561;28;20349;-49
2024/01/16 16:42:43;;;;;;;;;;;;;;;;;;4990504;28;19949;-48
2024/01/16 16:45:11;;;;;;;;;;;;;;;;;;4995461;28;20420;-48
2024/01/16 16:47:37;;;;;;;;;;;;;;;;;;4990973;28;20420;-49
2024/01/16 16:50:04;;;;;;;;;;;;;;;;;;4990431;28;19914;-46
2024/01/16 16:52:30;;;;;;;;;;;;;;;;;;4991600;28;20313;-49
2024/01/16 16:54:56;;;;;;;;;;;;;;;;;;4991913;28;19937;-48
2024/01/16 16:57:22;;;;;;;;;;;;;;;;;;4990187;28;19960;-46
2024/01/16 16:59:48;;;;;;;;;;;;;;;;;;4992253;28;19914;-50
2024/01/16 17:02:14;;;;;;;;;;;;;;;;;;4991420;28;20012;-46
2024/01/16 17:04:40;;;;;;;;;;;;;;;;;;4992129;28;20340;-46
2024/01/16 17:07:05;;;;;;;;;;;;;;;;;;4992075;28;19910;-49
2024/01/16 17:09:31;;;;;;;;;;;;;;;;;;4988834;28;19913;-48
2024/01/16 17:11:57;;;;;;;;;;;;;;;;;;4989079;28;19921;-46
2024/01/16 17:14:23;;;;;;;;;;;;;;;;;;4990162;28;19925;-47
2024/01/16 17:16:49;;;;;;;;;;;;;;;;;;4990367;28;19913;-48
2024/01/16 17:19:15;;;;;;;;;;;;;;;;;;4990735;28;19914;-47
2024/01/16 17:21:41;;;;;;;;;;;;;;;;;;4991893;28;19953;-46
2024/01/16 17:24:07;;;;;;;;;;;;;;;;;;4992308;28;19920;-49
2024/01/16 17:26:34;;;;;;;;;;;;;;;;;;4990704;28;19914;-49
2024/01/16 17:29:03;;;;;;;;;;;;;;;;;;4990577;28;20110;-49
2024/01/16 17:31:29;;;;;;;;;;;;;;;;;;4990574;28;19910;-49
2024/01/16 17:33:55;;;;;;;;;;;;;;;;;;4992021;28;19921;-49
2024/01/16 17:36:21;;;;;;;;;;;;;;;;;;4991121;28;20305;-49
2024/01/16 17:38:47;;;;;;;;;;;;;;;;;;4990044;28;19925;-48
2024/01/16 17:41:12;;;;;;;;;;;;;;;;;;4989231;28;19917;-47
2024/01/16 17:43:40;;;;;;;;;;;;;;;;;;4987787;28;19921;-48
2024/01/16 17:46:06;;;;;;;;;;;;;;;;;;4988431;28;19913;-46
2024/01/16 17:48:33;;;;;;;;;;;;;;;;;;4989174;28;20116;-45
2024/01/16 17:50:59;;;;;;;;;;;;;;;;;;4988050;28;19909;-46
2024/01/16 17:53:27;;;;;;;;;;;;;;;;;;4988652;28;19964;-48
2024/01/16 17:55:55;;;;;;;;;;;;;;;;;;4988153;28;20335;-48
2024/01/16 17:58:21;;;;;;;;;;;;;;;;;;4987118;28;19968;-46
2024/01/16 18:00:47;;;;;;;;;;;;;;;;;;4992750;28;19961;-47
2024/01/16 18:03:13;;;;;;;;;;;;;;;;;;4987310;28;19913;-47
2024/01/16 18:05:41;;;;;;;;;;;;;;;;;;4984977;28;20138;-48
2024/01/16 18:08:08;;;;;;;;;;;;;;;;;;4986012;28;20333;-47
2024/01/16 18:10:34;;;;;;;;;;;;;;;;;;4987103;28;19918;-49
2024/01/16 18:13:00;;;;;;;;;;;;;;;;;;4985333;28;19976;-48
2024/01/16 18:15:27;;;;;;;;;;;;;;;;;;4988922;28;19917;-50
2024/01/16 18:17:53;;;;;;;;;;;;;;;;;;4984680;28;19952;-46
2024/01/16 18:20:21;;;;;;;;;;;;;;;;;;4969180;28;20372;-47
2024/01/16 18:22:55;;;;;;;;;;;;;;;;;;4969111;28;19997;-49
2024/01/16 18:25:24;;;;;;;;;;;;;;;;;;4980494;28;19953;-49
2024/01/16 18:27:52;;;;;;;;;;;;;;;;;;4988071;28;20012;-47
2024/01/16 18:30:18;;;;;;;;;;;;;;;;;;4970902;28;19910;-46
2024/01/16 18:32:44;;;;;;;;;;;;;;;;;;4988162;28;19924;-49
2024/01/16 18:35:10;;;;;;;;;;;;;;;;;;4985906;28;19918;-48
2024/01/16 18:37:39;;;;;;;;;;;;;;;;;;4985283;28;20387;-48
2024/01/16 18:40:08;;;;;;;;;;;;;;;;;;4983645;28;19914;-45
2024/01/16 18:42:34;;;;;;;;;;;;;;;;;;4985688;28;19935;-47
2024/01/16 18:45:00;;;;;;;;;;;;;;;;;;4987188;28;19917;-46
2024/01/16 18:47:26;;;;;;;;;;;;;;;;;;4968446;28;19957;-48
2024/01/16 18:49:52;;;;;;;;;;;;;;;;;;4987197;28;20281;-48
2024/01/16 18:52:18;;;;;;;;;;;;;;;;;;4990743;28;19937;-46
2024/01/16 18:54:46;;;;;;;;;;;;;;;;;;4973827;28;20304;-46
2024/01/16 18:57:13;;;;;;;;;;;;;;;;;;4969751;28;20551;-48
2024/01/16 18:59:39;;;;;;;;;;;;;;;;;;4990483;28;19914;-44
2024/01/16 19:02:05;;;;;;;;;;;;;;;;;;4989220;28;19998;-44
2024/01/16 19:04:32;;;;;;;;;;;;;;;;;;4969803;28;20487;-49
2024/01/16 19:06:58;;;;;;;;;;;;;;;;;;4987043;28;19914;-47
2024/01/16 19:09:26;;;;;;;;;;;;;;;;;;4990886;28;19924;-46
2024/01/16 19:11:53;;;;;;;;;;;;;;;;;;4986701;28;20273;-49
2024/01/16 19:14:19;;;;;;;;;;;;;;;;;;4987214;28;20000;-47
2024/01/16 19:16:46;;;;;;;;;;;;;;;;;;4987287;28;20060;-47
2024/01/16 19:19:12;;;;;;;;;;;;;;;;;;4987926;28;19914;-45
2024/01/16 19:21:37;;;;;;;;;;;;;;;;;;4988484;28;19921;-48
2024/01/16 19:24:04;;;;;;;;;;;;;;;;;;4994270;28;20411;-45
2024/01/16 19:26:29;;;;;;;;;;;;;;;;;;4993069;28;20055;-48
2024/01/16 19:28:55;;;;;;;;;;;;;;;;;;4989808;28;20343;-45
2024/01/16 19:31:21;;;;;;;;;;;;;;;;;;4987354;28;19920;-46
2024/01/16 19:33:47;;;;;;;;;;;;;;;;;;4985135;28;19972;-46
2024/01/16 19:36:13;;;;;;;;;;;;;;;;;;4985837;28;20184;-45
2024/01/16 19:38:39;;;;;;;;;;;;;;;;;;4988291;28;19914;-47
2024/01/16 19:41:05;;;;;;;;;;;;;;;;;;4988458;28;19997;-48
2024/01/16 19:43:31;;;;;;;;;;;;;;;;;;4983752;28;19968;-44
2024/01/16 19:45:57;;;;;;;;;;;;;;;;;;4987278;28;20300;-45
2024/01/16 19:48:23;;;;;;;;;;;;;;;;;;4977825;28;19984;-49
2024/01/16 19:50:49;;;;;;;;;;;;;;;;;;4970224;28;20561;-47
2024/01/16 19:53:16;;;;;;;;;;;;;;;;;;4986331;28;19961;-48
2024/01/16 19:55:42;;;;;;;;;;;;;;;;;;4986876;28;19983;-48
2024/01/16 19:58:10;;;;;;;;;;;;;;;;;;4987152;28;20734;-49
2024/01/16 20:00:40;;;;;;;;;;;;;;;;;;4984807;28;19949;-45
2024/01/16 20:03:07;;;;;;;;;;;;;;;;;;4986960;28;20377;-45
2024/01/16 20:05:35;;;;;;;;;;;;;;;;;;4988608;28;20420;-46
2024/01/16 20:08:00;;;;;;;;;;;;;;;;;;4987630;28;19969;-47
2024/01/16 20:10:26;;;;;;;;;;;;;;;;;;4987591;28;19913;-48
2024/01/16 20:12:52;;;;;;;;;;;;;;;;;;4985714;28;19968;-44
2024/01/16 20:15:20;;;;;;;;;;;;;;;;;;4991795;28;20373;-48
2024/01/16 20:17:46;;;;;;;;;;;;;;;;;;4971139;28;20334;-46
2024/01/16 20:20:12;;;;;;;;;;;;;;;;;;4970880;28;19968;-48
2024/01/16 20:22:38;;;;;;;;;;;;;;;;;;4985905;28;19914;-48
2024/01/16 20:25:04;;;;;;;;;;;;;;;;;;4984986;28;19925;-48
2024/01/16 20:27:30;;;;;;;;;;;;;;;;;;4985540;28;19922;-46
2024/01/16 20:29:56;;;;;;;;;;;;;;;;;;4982593;28;19949;-48
2024/01/16 20:32:22;;;;;;;;;;;;;;;;;;4986016;28;19914;-45
2024/01/16 20:34:47;;;;;;;;;;;;;;;;;;4985026;28;19918;-44
2024/01/16 20:37:14;;;;;;;;;;;;;;;;;;4986097;28;20311;-46
2024/01/16 20:39:40;;;;;;;;;;;;;;;;;;4984814;28;19914;-46
2024/01/16 20:42:09;;;;;;;;;;;;;;;;;;4984752;28;20431;-46
2024/01/16 20:44:35;;;;;;;;;;;;;;;;;;4988203;28;19918;-45
2024/01/16 20:47:02;;;;;;;;;;;;;;;;;;4984513;28;19948;-47
2024/01/16 20:49:28;;;;;;;;;;;;;;;;;;4996611;28;20012;-45
2024/01/16 20:51:54;;;;;;;;;;;;;;;;;;4986031;28;20419;-47
2024/01/16 20:54:20;;;;;;;;;;;;;;;;;;4986137;28;20316;-50
2024/01/16 20:56:47;;;;;;;;;;;;;;;;;;4985526;28;20412;-48
2024/01/16 20:59:13;;;;;;;;;;;;;;;;;;4984691;28;20051;-45
2024/01/16 21:01:39;;;;;;;;;;;;;;;;;;4984892;28;20001;-49
2024/01/16 21:04:05;;;;;;;;;;;;;;;;;;4983772;28;19960;-43
2024/01/16 21:06:31;;;;;;;;;;;;;;;;;;4969653;28;19914;-43
2024/01/16 21:08:57;;;;;;;;;;;;;;;;;;4984692;28;19921;-43
2024/01/16 21:11:23;;;;;;;;;;;;;;;;;;4984356;28;19961;-43
2024/01/16 21:13:48;;;;;;;;;;;;;;;;;;4987799;28;19910;-43
2024/01/16 21:16:14;;;;;;;;;;;;;;;;;;4983764;28;19921;-43
2024/01/16 21:18:44;;;;;;;;;;;;;;;;;;4986164;28;19921;-43
2024/01/16 21:21:10;;;;;;;;;;;;;;;;;;4982607;28;20494;-43
2024/01/16 21:23:36;;;;;;;;;;;;;;;;;;4983573;28;19941;-44
2024/01/16 21:26:02;;;;;;;;;;;;;;;;;;4984960;28;19914;-44
2024/01/16 21:28:29;;;;;;;;;;;;;;;;;;4981840;28;19933;-43
2024/01/16 21:30:56;;;;;;;;;;;;;;;;;;4982750;28;20017;-43
2024/01/16 21:33:23;;;;;;;;;;;;;;;;;;4984867;28;20404;-43
2024/01/16 21:35:50;;;;;;;;;;;;;;;;;;4966632;28;20392;-43
2024/01/16 21:38:17;;;;;;;;;;;;;;;;;;4987776;28;20355;-43
2024/01/16 21:40:43;;;;;;;;;;;;;;;;;;4986974;28;19921;-42
2024/01/16 21:43:09;;;;;;;;;;;;;;;;;;4985870;28;19969;-44
2024/01/16 21:45:35;;;;;;;;;;;;;;;;;;4987473;28;19914;-45
2024/01/16 21:48:01;;;;;;;;;;;;;;;;;;4985306;28;19960;-43
2024/01/16 21:50:27;;;;;;;;;;;;;;;;;;4987549;28;20432;-42
2024/01/16 21:52:53;;;;;;;;;;;;;;;;;;4986783;28;19920;-42
2024/01/16 21:55:19;;;;;;;;;;;;;;;;;;4986906;28;19914;-42
2024/01/16 21:57:45;;;;;;;;;;;;;;;;;;4985939;28;20414;-42
2024/01/16 22:00:11;;;;;;;;;;;;;;;;;;4986853;28;20009;-43
2024/01/16 22:02:38;;;;;;;;;;;;;;;;;;4988836;28;20017;-43
2024/01/16 22:05:03;;;;;;;;;;;;;;;;;;4986450;28;19933;-42
2024/01/16 22:07:30;;;;;;;;;;;;;;;;;;4995757;28;20304;-42
2024/01/16 22:09:56;;;;;;;;;;;;;;;;;;4989056;28;19913;-43
2024/01/16 22:12:22;;;;;;;;;;;;;;;;;;5006663;28;20388;-42
2024/01/16 22:14:53;;;;;;;;;;;;;;;;;;4998016;28;19914;-42
2024/01/16 22:17:19;;;;;;;;;;;;;;;;;;4987422;28;20219;-42
2024/01/16 22:19:45;;;;;;;;;;;;;;;;;;4996265;28;19924;-43
2024/01/16 22:22:10;;;;;;;;;;;;;;;;;;5006711;28;19941;-42
2024/01/16 22:24:37;;;;;;;;;;;;;;;;;;5006447;28;19913;-43
2024/01/16 22:27:03;;;;;;;;;;;;;;;;;;5006261;28;19914;-43
2024/01/16 22:29:30;;;;;;;;;;;;;;;;;;4989041;28;19913;-43
2024/01/16 22:31:57;;;;;;;;;;;;;;;;;;4988598;28;20308;-42
2024/01/16 22:34:24;;;;;;;;;;;;;;;;;;5006782;28;20347;-44
2024/01/16 22:36:51;;;;;;;;;;;;;;;;;;5006383;28;19910;-43
2024/01/16 22:39:17;;;;;;;;;;;;;;;;;;4986882;28;20005;-44